sensor_id;sensor_type;location;lat;lon;timestamp;temperature;humidity
7028;DHT22;3555;53.248;10.336;2022-10-16T00:00:47;14.70;99.90
7028;DHT22;3555;53.248;10.336;2022-10-16T00:03:13;14.80;99.90
7028;DHT22;3555;53.248;10.336;2022-10-16T00:05:42;14.60;99.90
7028;DHT22;3555;53.248;10.336;2022-10-16T00:08:10;14.60;99.90
7028;DHT22;3555;53.248;10.336;2022-10-16T00:10:37;14.70;99.90
7028;DHT22;3555;53.248;10.336;2022-10-16T00:13:04;14.70;99.90
7028;DHT22;3555;53.248;10.336;2022-10-16T00:15:34;14.80;99.90
7028;DHT22;3555;53.248;10.336;2022-10-16T00:18:03;14.80;99.90
7028;DHT22;3555;53.248;10.336;2022-10-16T00:20:30;14.80;99.90
7028;DHT22;3555;53.248;10.336;2022-10-16T00:22:59;15.00;99.90
7028;DHT22;3555;53.248;10.336;2022-10-16T00:25:25;14.90;99.90
7028;DHT22;3555;53.248;10.336;2022-10-16T00:27:52;14.90;99.90
7028;DHT22;3555;53.248;10.336;2022-10-16T00:30:19;14.90;99.90
7028;DHT22;3555;53.248;10.336;2022-10-16T00:32:47;14.90;99.90
7028;DHT22;3555;53.248;10.336;2022-10-16T00:35:14;14.90;99.90
7028;DHT22;3555;53.248;10.336;2022-10-16T00:37:41;14.90;99.90
7028;DHT22;3555;53.248;10.336;2022-10-16T00:40:09;14.60;99.90
7028;DHT22;3555;53.248;10.336;2022-10-16T00:42:36;14.60;99.90
7028;DHT22;3555;53.248;10.336;2022-10-16T00:45:04;14.60;99.90
7028;DHT22;3555;53.248;10.336;2022-10-16T00:47:34;14.50;99.90
7028;DHT22;3555;53.248;10.336;2022-10-16T00:50:08;14.50;99.90
7028;DHT22;3555;53.248;10.336;2022-10-16T00:52:36;14.40;99.90
7028;DHT22;3555;53.248;10.336;2022-10-16T00:55:06;14.40;99.90
7028;DHT22;3555;53.248;10.336;2022-10-16T00:57:35;14.40;99.90
7028;DHT22;3555;53.248;10.336;2022-10-16T01:00:03;14.40;99.90
7028;DHT22;3555;53.248;10.336;2022-10-16T01:02:30;14.30;99.90
7028;DHT22;3555;53.248;10.336;2022-10-16T01:04:57;14.10;99.90
7028;DHT22;3555;53.248;10.336;2022-10-16T01:07:34;13.90;99.90
7028;DHT22;3555;53.248;10.336;2022-10-16T01:10:10;13.90;99.90
7028;DHT22;3555;53.248;10.336;2022-10-16T01:12:44;13.90;99.90
7028;DHT22;3555;53.248;10.336;2022-10-16T01:15:17;13.80;99.90
7028;DHT22;3555;53.248;10.336;2022-10-16T01:17:49;13.70;99.90
7028;DHT22;3555;53.248;10.336;2022-10-16T01:20:24;13.70;99.90
7028;DHT22;3555;53.248;10.336;2022-10-16T01:23:15;13.80;99.90
7028;DHT22;3555;53.248;10.336;2022-10-16T01:25:59;13.80;99.90
7028;DHT22;3555;53.248;10.336;2022-10-16T01:28:36;13.70;99.90
7028;DHT22;3555;53.248;10.336;2022-10-16T01:31:05;13.70;99.90
7028;DHT22;3555;53.248;10.336;2022-10-16T01:33:36;13.60;99.90
7028;DHT22;3555;53.248;10.336;2022-10-16T01:36:10;13.60;99.90
7028;DHT22;3555;53.248;10.336;2022-10-16T01:38:39;13.70;99.90
7028;DHT22;3555;53.248;10.336;2022-10-16T01:41:09;13.60;99.90
7028;DHT22;3555;53.248;10.336;2022-10-16T01:43:40;13.40;99.90
7028;DHT22;3555;53.248;10.336;2022-10-16T01:46:10;13.50;99.90
7028;DHT22;3555;53.248;10.336;2022-10-16T01:48:39;13.40;99.90
7028;DHT22;3555;53.248;10.336;2022-10-16T01:51:09;13.50;99.90
7028;DHT22;3555;53.248;10.336;2022-10-16T01:53:37;13.60;99.90
7028;DHT22;3555;53.248;10.336;2022-10-16T01:56:07;13.60;99.90
7028;DHT22;3555;53.248;10.336;2022-10-16T01:58:42;13.60;99.90
7028;DHT22;3555;53.248;10.336;2022-10-16T02:01:13;13.50;99.90
7028;DHT22;3555;53.248;10.336;2022-10-16T02:03:43;13.50;99.90
7028;DHT22;3555;53.248;10.336;2022-10-16T02:06:12;13.50;99.90
7028;DHT22;3555;53.248;10.336;2022-10-16T02:08:39;13.30;99.90
7028;DHT22;3555;53.248;10.336;2022-10-16T02:11:10;13.30;99.90
7028;DHT22;3555;53.248;10.336;2022-10-16T02:13:39;13.20;99.90
7028;DHT22;3555;53.248;10.336;2022-10-16T02:16:12;13.20;99.90
7028;DHT22;3555;53.248;10.336;2022-10-16T02:18:39;13.20;99.90
7028;DHT22;3555;53.248;10.336;2022-10-16T02:21:13;13.10;99.90
7028;DHT22;3555;53.248;10.336;2022-10-16T02:23:47;13.10;99.90
7028;DHT22;3555;53.248;10.336;2022-10-16T02:26:20;13.20;99.90
7028;DHT22;3555;53.248;10.336;2022-10-16T02:28:55;13.20;99.90
7028;DHT22;3555;53.248;10.336;2022-10-16T02:31:28;13.20;99.90
7028;DHT22;3555;53.248;10.336;2022-10-16T02:34:00;13.20;99.90
7028;DHT22;3555;53.248;10.336;2022-10-16T02:36:28;13.10;99.90
7028;DHT22;3555;53.248;10.336;2022-10-16T02:38:55;13.00;99.90
7028;DHT22;3555;53.248;10.336;2022-10-16T02:41:23;13.10;99.90
7028;DHT22;3555;53.248;10.336;2022-10-16T02:43:50;13.10;99.90
7028;DHT22;3555;53.248;10.336;2022-10-16T02:46:17;13.10;99.90
7028;DHT22;3555;53.248;10.336;2022-10-16T02:48:46;13.10;99.90
7028;DHT22;3555;53.248;10.336;2022-10-16T02:51:13;13.10;99.90
7028;DHT22;3555;53.248;10.336;2022-10-16T02:53:40;13.10;99.90
7028;DHT22;3555;53.248;10.336;2022-10-16T02:56:07;13.10;99.90
7028;DHT22;3555;53.248;10.336;2022-10-16T02:58:33;13.10;99.90
7028;DHT22;3555;53.248;10.336;2022-10-16T03:01:00;13.10;99.90
7028;DHT22;3555;53.248;10.336;2022-10-16T03:03:27;13.10;99.90
7028;DHT22;3555;53.248;10.336;2022-10-16T03:05:55;13.10;99.90
7028;DHT22;3555;53.248;10.336;2022-10-16T03:08:22;13.20;99.90
7028;DHT22;3555;53.248;10.336;2022-10-16T03:10:50;13.10;99.90
7028;DHT22;3555;53.248;10.336;2022-10-16T03:13:17;13.10;99.90
7028;DHT22;3555;53.248;10.336;2022-10-16T03:15:46;13.10;99.90
7028;DHT22;3555;53.248;10.336;2022-10-16T03:18:12;13.10;99.90
7028;DHT22;3555;53.248;10.336;2022-10-16T03:20:39;13.10;99.90
7028;DHT22;3555;53.248;10.336;2022-10-16T03:23:07;13.00;99.90
7028;DHT22;3555;53.248;10.336;2022-10-16T03:25:34;13.00;99.90
7028;DHT22;3555;53.248;10.336;2022-10-16T03:28:01;13.00;99.90
7028;DHT22;3555;53.248;10.336;2022-10-16T03:30:28;13.00;99.90
7028;DHT22;3555;53.248;10.336;2022-10-16T03:32:55;12.90;99.90
7028;DHT22;3555;53.248;10.336;2022-10-16T03:35:23;12.80;99.90
7028;DHT22;3555;53.248;10.336;2022-10-16T03:37:50;12.90;99.90
7028;DHT22;3555;53.248;10.336;2022-10-16T03:40:19;12.80;99.90
7028;DHT22;3555;53.248;10.336;2022-10-16T03:42:45;12.90;99.90
7028;DHT22;3555;53.248;10.336;2022-10-16T03:45:12;12.90;99.90
7028;DHT22;3555;53.248;10.336;2022-10-16T03:47:39;12.80;99.90
7028;DHT22;3555;53.248;10.336;2022-10-16T03:50:07;12.80;99.90
7028;DHT22;3555;53.248;10.336;2022-10-16T03:52:34;12.70;99.90
7028;DHT22;3555;53.248;10.336;2022-10-16T03:55:00;12.70;99.90
7028;DHT22;3555;53.248;10.336;2022-10-16T03:57:28;12.70;99.90
7028;DHT22;3555;53.248;10.336;2022-10-16T03:59:55;12.80;99.90
7028;DHT22;3555;53.248;10.336;2022-10-16T04:02:22;12.80;99.90
7028;DHT22;3555;53.248;10.336;2022-10-16T04:04:49;12.80;99.90
7028;DHT22;3555;53.248;10.336;2022-10-16T04:07:16;12.80;99.90
7028;DHT22;3555;53.248;10.336;2022-10-16T04:09:42;12.70;99.90
7028;DHT22;3555;53.248;10.336;2022-10-16T04:12:09;12.80;99.90
7028;DHT22;3555;53.248;10.336;2022-10-16T04:14:37;12.90;99.90
7028;DHT22;3555;53.248;10.336;2022-10-16T04:17:04;12.70;99.90
7028;DHT22;3555;53.248;10.336;2022-10-16T04:19:31;13.30;99.90
7028;DHT22;3555;53.248;10.336;2022-10-16T04:21:58;12.70;99.90
7028;DHT22;3555;53.248;10.336;2022-10-16T04:24:24;12.60;99.90
7028;DHT22;3555;53.248;10.336;2022-10-16T04:26:51;12.70;99.90
7028;DHT22;3555;53.248;10.336;2022-10-16T04:29:18;12.60;99.90
7028;DHT22;3555;53.248;10.336;2022-10-16T04:31:46;12.60;99.90
7028;DHT22;3555;53.248;10.336;2022-10-16T04:34:13;12.60;99.90
7028;DHT22;3555;53.248;10.336;2022-10-16T04:36:40;12.70;99.90
7028;DHT22;3555;53.248;10.336;2022-10-16T04:39:07;12.60;99.90
7028;DHT22;3555;53.248;10.336;2022-10-16T04:41:34;12.70;99.90
7028;DHT22;3555;53.248;10.336;2022-10-16T04:44:01;12.70;99.90
7028;DHT22;3555;53.248;10.336;2022-10-16T04:46:28;12.70;99.90
7028;DHT22;3555;53.248;10.336;2022-10-16T04:48:56;12.80;99.90
7028;DHT22;3555;53.248;10.336;2022-10-16T04:51:23;12.70;99.90
7028;DHT22;3555;53.248;10.336;2022-10-16T04:53:51;12.80;99.90
7028;DHT22;3555;53.248;10.336;2022-10-16T04:56:18;12.80;99.90
7028;DHT22;3555;53.248;10.336;2022-10-16T04:58:45;12.80;99.90
7028;DHT22;3555;53.248;10.336;2022-10-16T05:01:12;12.80;99.90
7028;DHT22;3555;53.248;10.336;2022-10-16T05:03:39;12.80;99.90
7028;DHT22;3555;53.248;10.336;2022-10-16T05:06:07;12.80;99.90
7028;DHT22;3555;53.248;10.336;2022-10-16T05:08:34;12.80;99.90
7028;DHT22;3555;53.248;10.336;2022-10-16T05:11:01;12.80;99.90
7028;DHT22;3555;53.248;10.336;2022-10-16T05:13:28;12.80;99.90
7028;DHT22;3555;53.248;10.336;2022-10-16T05:15:54;12.80;99.90
7028;DHT22;3555;53.248;10.336;2022-10-16T05:18:22;12.80;99.90
7028;DHT22;3555;53.248;10.336;2022-10-16T05:20:49;12.80;99.90
7028;DHT22;3555;53.248;10.336;2022-10-16T05:23:17;12.70;99.90
7028;DHT22;3555;53.248;10.336;2022-10-16T05:25:52;12.70;99.90
7028;DHT22;3555;53.248;10.336;2022-10-16T05:28:19;12.60;99.90
7028;DHT22;3555;53.248;10.336;2022-10-16T05:30:46;12.70;99.90
7028;DHT22;3555;53.248;10.336;2022-10-16T05:33:13;12.60;99.90
7028;DHT22;3555;53.248;10.336;2022-10-16T05:35:40;12.60;99.90
7028;DHT22;3555;53.248;10.336;2022-10-16T05:38:06;12.70;99.90
7028;DHT22;3555;53.248;10.336;2022-10-16T05:40:35;12.60;99.90
7028;DHT22;3555;53.248;10.336;2022-10-16T05:43:01;12.60;99.90
7028;DHT22;3555;53.248;10.336;2022-10-16T05:45:28;12.70;99.90
7028;DHT22;3555;53.248;10.336;2022-10-16T05:47:55;12.70;99.90
7028;DHT22;3555;53.248;10.336;2022-10-16T05:50:22;12.60;99.90
7028;DHT22;3555;53.248;10.336;2022-10-16T05:52:49;12.60;99.90
7028;DHT22;3555;53.248;10.336;2022-10-16T05:55:15;12.60;99.90
7028;DHT22;3555;53.248;10.336;2022-10-16T05:57:44;12.50;99.90
7028;DHT22;3555;53.248;10.336;2022-10-16T06:00:11;12.50;99.90
7028;DHT22;3555;53.248;10.336;2022-10-16T06:02:38;12.50;99.90
7028;DHT22;3555;53.248;10.336;2022-10-16T06:05:05;12.50;99.90
7028;DHT22;3555;53.248;10.336;2022-10-16T06:07:34;12.50;99.90
7028;DHT22;3555;53.248;10.336;2022-10-16T06:10:02;12.50;99.90
7028;DHT22;3555;53.248;10.336;2022-10-16T06:12:29;12.50;99.90
7028;DHT22;3555;53.248;10.336;2022-10-16T06:14:58;12.50;99.90
7028;DHT22;3555;53.248;10.336;2022-10-16T06:17:24;12.50;99.90
7028;DHT22;3555;53.248;10.336;2022-10-16T06:19:51;12.60;99.90
7028;DHT22;3555;53.248;10.336;2022-10-16T06:22:18;12.50;99.90
7028;DHT22;3555;53.248;10.336;2022-10-16T06:24:45;12.50;99.90
7028;DHT22;3555;53.248;10.336;2022-10-16T06:27:13;12.50;99.90
7028;DHT22;3555;53.248;10.336;2022-10-16T06:29:39;12.50;99.90
7028;DHT22;3555;53.248;10.336;2022-10-16T06:32:09;12.60;99.90
7028;DHT22;3555;53.248;10.336;2022-10-16T06:34:36;12.60;99.90
7028;DHT22;3555;53.248;10.336;2022-10-16T06:37:05;12.60;99.90
7028;DHT22;3555;53.248;10.336;2022-10-16T06:39:32;12.60;99.90
7028;DHT22;3555;53.248;10.336;2022-10-16T06:41:59;12.60;99.90
7028;DHT22;3555;53.248;10.336;2022-10-16T06:44:25;12.30;99.90
7028;DHT22;3555;53.248;10.336;2022-10-16T06:46:52;12.60;99.90
7028;DHT22;3555;53.248;10.336;2022-10-16T06:49:20;12.70;99.90
7028;DHT22;3555;53.248;10.336;2022-10-16T06:51:48;12.70;99.90
7028;DHT22;3555;53.248;10.336;2022-10-16T06:54:15;12.60;99.90
7028;DHT22;3555;53.248;10.336;2022-10-16T06:56:43;12.60;99.90
7028;DHT22;3555;53.248;10.336;2022-10-16T06:59:10;12.70;99.90
7028;DHT22;3555;53.248;10.336;2022-10-16T07:01:37;12.70;99.90
7028;DHT22;3555;53.248;10.336;2022-10-16T07:04:03;12.70;99.90
7028;DHT22;3555;53.248;10.336;2022-10-16T07:06:34;12.70;99.90
7028;DHT22;3555;53.248;10.336;2022-10-16T07:09:03;12.80;99.90
7028;DHT22;3555;53.248;10.336;2022-10-16T07:11:30;12.80;99.90
7028;DHT22;3555;53.248;10.336;2022-10-16T07:13:57;12.80;99.90
7028;DHT22;3555;53.248;10.336;2022-10-16T07:16:25;12.80;99.90
7028;DHT22;3555;53.248;10.336;2022-10-16T07:18:53;13.10;99.90
7028;DHT22;3555;53.248;10.336;2022-10-16T07:21:24;13.10;99.90
7028;DHT22;3555;53.248;10.336;2022-10-16T07:23:54;13.30;99.90
7028;DHT22;3555;53.248;10.336;2022-10-16T07:26:22;13.50;99.90
7028;DHT22;3555;53.248;10.336;2022-10-16T07:28:49;13.70;99.90
7028;DHT22;3555;53.248;10.336;2022-10-16T07:31:17;13.90;99.90
7028;DHT22;3555;53.248;10.336;2022-10-16T07:33:46;14.00;99.90
7028;DHT22;3555;53.248;10.336;2022-10-16T07:36:13;14.10;99.90
7028;DHT22;3555;53.248;10.336;2022-10-16T07:38:40;14.20;99.90
7028;DHT22;3555;53.248;10.336;2022-10-16T07:41:12;14.30;99.90
7028;DHT22;3555;53.248;10.336;2022-10-16T07:43:39;14.60;99.90
7028;DHT22;3555;53.248;10.336;2022-10-16T07:46:06;14.70;99.90
7028;DHT22;3555;53.248;10.336;2022-10-16T07:48:34;14.80;99.90
7028;DHT22;3555;53.248;10.336;2022-10-16T07:51:03;15.10;99.90
7028;DHT22;3555;53.248;10.336;2022-10-16T07:53:31;15.30;99.90
7028;DHT22;3555;53.248;10.336;2022-10-16T07:55:58;15.50;99.90
7028;DHT22;3555;53.248;10.336;2022-10-16T07:58:27;15.80;99.90
7028;DHT22;3555;53.248;10.336;2022-10-16T08:00:54;16.00;99.90
7028;DHT22;3555;53.248;10.336;2022-10-16T08:03:20;16.20;99.90
7028;DHT22;3555;53.248;10.336;2022-10-16T08:05:47;16.40;99.90
7028;DHT22;3555;53.248;10.336;2022-10-16T08:08:15;16.60;99.90
7028;DHT22;3555;53.248;10.336;2022-10-16T08:10:43;16.70;99.90
7028;DHT22;3555;53.248;10.336;2022-10-16T08:13:09;16.90;99.90
7028;DHT22;3555;53.248;10.336;2022-10-16T08:15:37;17.10;99.90
7028;DHT22;3555;53.248;10.336;2022-10-16T08:18:05;17.20;99.90
7028;DHT22;3555;53.248;10.336;2022-10-16T08:20:33;17.20;99.90
7028;DHT22;3555;53.248;10.336;2022-10-16T08:23:00;17.10;99.90
7028;DHT22;3555;53.248;10.336;2022-10-16T08:25:27;16.70;99.90
7028;DHT22;3555;53.248;10.336;2022-10-16T08:27:54;16.40;99.90
7028;DHT22;3555;53.248;10.336;2022-10-16T08:30:22;16.30;99.90
7028;DHT22;3555;53.248;10.336;2022-10-16T08:32:51;16.50;99.90
7028;DHT22;3555;53.248;10.336;2022-10-16T08:35:18;16.60;99.90
7028;DHT22;3555;53.248;10.336;2022-10-16T08:37:45;16.80;99.90
7028;DHT22;3555;53.248;10.336;2022-10-16T08:40:19;16.90;99.90
7028;DHT22;3555;53.248;10.336;2022-10-16T08:42:58;16.90;99.90
7028;DHT22;3555;53.248;10.336;2022-10-16T08:45:35;17.10;99.90
7028;DHT22;3555;53.248;10.336;2022-10-16T08:48:15;17.20;99.90
7028;DHT22;3555;53.248;10.336;2022-10-16T08:50:43;17.00;99.90
7028;DHT22;3555;53.248;10.336;2022-10-16T08:53:16;16.90;99.90
7028;DHT22;3555;53.248;10.336;2022-10-16T08:55:46;17.00;99.90
7028;DHT22;3555;53.248;10.336;2022-10-16T08:58:16;17.00;99.90
7028;DHT22;3555;53.248;10.336;2022-10-16T09:00:46;17.10;99.90
7028;DHT22;3555;53.248;10.336;2022-10-16T09:03:23;17.30;99.90
7028;DHT22;3555;53.248;10.336;2022-10-16T09:06:05;17.40;99.90
7028;DHT22;3555;53.248;10.336;2022-10-16T09:08:42;17.70;99.90
7028;DHT22;3555;53.248;10.336;2022-10-16T09:11:15;17.70;99.90
7028;DHT22;3555;53.248;10.336;2022-10-16T09:13:49;18.00;99.90
7028;DHT22;3555;53.248;10.336;2022-10-16T09:16:21;18.20;99.90
7028;DHT22;3555;53.248;10.336;2022-10-16T09:18:54;18.40;99.90
7028;DHT22;3555;53.248;10.336;2022-10-16T09:21:26;18.60;99.90
7028;DHT22;3555;53.248;10.336;2022-10-16T09:23:57;18.70;99.90
7028;DHT22;3555;53.248;10.336;2022-10-16T09:26:25;18.60;99.90
7028;DHT22;3555;53.248;10.336;2022-10-16T09:28:52;18.80;99.90
7028;DHT22;3555;53.248;10.336;2022-10-16T09:31:21;18.70;99.90
7028;DHT22;3555;53.248;10.336;2022-10-16T09:33:53;19.00;99.90
7028;DHT22;3555;53.248;10.336;2022-10-16T09:36:21;18.90;57.60
7028;DHT22;3555;53.248;10.336;2022-10-16T09:38:49;18.90;99.90
7028;DHT22;3555;53.248;10.336;2022-10-16T09:41:21;18.90;99.90
7028;DHT22;3555;53.248;10.336;2022-10-16T09:43:51;19.10;34.10
7028;DHT22;3555;53.248;10.336;2022-10-16T09:46:25;19.40;76.40
7028;DHT22;3555;53.248;10.336;2022-10-16T09:48:57;19.40;1.00
7028;DHT22;3555;53.248;10.336;2022-10-16T09:51:26;19.60;1.00
7028;DHT22;3555;53.248;10.336;2022-10-16T09:53:59;19.40;99.90
7028;DHT22;3555;53.248;10.336;2022-10-16T09:56:27;19.50;1.00
7028;DHT22;3555;53.248;10.336;2022-10-16T09:58:56;19.70;1.00
7028;DHT22;3555;53.248;10.336;2022-10-16T10:01:28;19.70;99.90
7028;DHT22;3555;53.248;10.336;2022-10-16T10:03:58;19.80;69.40
7028;DHT22;3555;53.248;10.336;2022-10-16T10:06:31;20.00;1.00
7028;DHT22;3555;53.248;10.336;2022-10-16T10:09:06;20.30;1.00
7028;DHT22;3555;53.248;10.336;2022-10-16T10:11:41;20.40;99.90
7028;DHT22;3555;53.248;10.336;2022-10-16T10:14:19;20.40;1.00
7028;DHT22;3555;53.248;10.336;2022-10-16T10:16:47;20.50;1.00
7028;DHT22;3555;53.248;10.336;2022-10-16T10:19:17;20.60;1.00
7028;DHT22;3555;53.248;10.336;2022-10-16T10:21:44;20.30;1.00
7028;DHT22;3555;53.248;10.336;2022-10-16T10:24:13;20.20;1.00
7028;DHT22;3555;53.248;10.336;2022-10-16T10:26:57;20.20;1.00
7028;DHT22;3555;53.248;10.336;2022-10-16T10:29:41;20.20;1.00
7028;DHT22;3555;53.248;10.336;2022-10-16T10:32:19;20.40;42.00
7028;DHT22;3555;53.248;10.336;2022-10-16T10:35:04;20.40;1.00
7028;DHT22;3555;53.248;10.336;2022-10-16T10:37:55;20.50;1.00
7028;DHT22;3555;53.248;10.336;2022-10-16T10:40:33;20.80;1.00
7028;DHT22;3555;53.248;10.336;2022-10-16T10:43:12;20.90;99.90
7028;DHT22;3555;53.248;10.336;2022-10-16T10:45:44;20.80;1.00
7028;DHT22;3555;53.248;10.336;2022-10-16T10:48:32;20.80;1.00
7028;DHT22;3555;53.248;10.336;2022-10-16T10:51:13;20.60;99.90
7028;DHT22;3555;53.248;10.336;2022-10-16T10:53:45;20.60;59.10
7028;DHT22;3555;53.248;10.336;2022-10-16T10:56:24;20.70;32.20
7028;DHT22;3555;53.248;10.336;2022-10-16T10:59:03;20.80;1.00
7028;DHT22;3555;53.248;10.336;2022-10-16T11:01:40;20.80;1.00
7028;DHT22;3555;53.248;10.336;2022-10-16T11:04:34;20.90;1.00
7028;DHT22;3555;53.248;10.336;2022-10-16T11:07:11;20.70;1.00
7028;DHT22;3555;53.248;10.336;2022-10-16T11:09:44;20.60;1.00
7028;DHT22;3555;53.248;10.336;2022-10-16T11:12:16;20.50;1.00
7028;DHT22;3555;53.248;10.336;2022-10-16T11:14:49;20.80;1.00
7028;DHT22;3555;53.248;10.336;2022-10-16T11:17:19;21.00;99.90
7028;DHT22;3555;53.248;10.336;2022-10-16T11:19:53;21.10;1.00
7028;DHT22;3555;53.248;10.336;2022-10-16T11:22:25;21.10;1.00
7028;DHT22;3555;53.248;10.336;2022-10-16T11:24:59;21.20;1.00
7028;DHT22;3555;53.248;10.336;2022-10-16T11:27:42;21.00;99.90
7028;DHT22;3555;53.248;10.336;2022-10-16T11:30:16;20.70;99.90
7028;DHT22;3555;53.248;10.336;2022-10-16T11:33:02;20.60;1.00
7028;DHT22;3555;53.248;10.336;2022-10-16T11:35:38;20.40;1.00
7028;DHT22;3555;53.248;10.336;2022-10-16T11:38:14;20.70;99.90
7028;DHT22;3555;53.248;10.336;2022-10-16T11:40:43;20.90;1.00
7028;DHT22;3555;53.248;10.336;2022-10-16T11:43:17;20.70;1.00
7028;DHT22;3555;53.248;10.336;2022-10-16T11:45:48;20.70;1.00
7028;DHT22;3555;53.248;10.336;2022-10-16T11:48:23;20.90;1.00
7028;DHT22;3555;53.248;10.336;2022-10-16T11:50:53;20.90;1.00
7028;DHT22;3555;53.248;10.336;2022-10-16T11:53:34;20.60;1.00
7028;DHT22;3555;53.248;10.336;2022-10-16T11:56:01;20.50;1.00
7028;DHT22;3555;53.248;10.336;2022-10-16T11:58:32;20.40;1.00
7028;DHT22;3555;53.248;10.336;2022-10-16T12:01:13;20.30;1.00
7028;DHT22;3555;53.248;10.336;2022-10-16T12:03:46;20.20;1.00
7028;DHT22;3555;53.248;10.336;2022-10-16T12:06:25;20.10;99.90
7028;DHT22;3555;53.248;10.336;2022-10-16T12:08:55;20.00;99.90
7028;DHT22;3555;53.248;10.336;2022-10-16T12:11:33;20.10;99.90
7028;DHT22;3555;53.248;10.336;2022-10-16T12:14:35;19.90;91.80
7028;DHT22;3555;53.248;10.336;2022-10-16T12:17:04;19.90;1.00
7028;DHT22;3555;53.248;10.336;2022-10-16T12:19:57;19.80;13.10
7028;DHT22;3555;53.248;10.336;2022-10-16T12:22:28;19.80;99.90
7028;DHT22;3555;53.248;10.336;2022-10-16T12:24:57;19.80;1.00
7028;DHT22;3555;53.248;10.336;2022-10-16T12:27:28;19.80;99.90
7028;DHT22;3555;53.248;10.336;2022-10-16T12:29:57;19.70;99.90
7028;DHT22;3555;53.248;10.336;2022-10-16T12:32:30;19.50;1.00
7028;DHT22;3555;53.248;10.336;2022-10-16T12:34:58;19.30;99.90
7028;DHT22;3555;53.248;10.336;2022-10-16T12:37:27;19.10;99.90
7028;DHT22;3555;53.248;10.336;2022-10-16T12:39:57;19.10;1.00
7028;DHT22;3555;53.248;10.336;2022-10-16T12:42:34;19.20;1.00
7028;DHT22;3555;53.248;10.336;2022-10-16T12:45:01;19.30;99.90
7028;DHT22;3555;53.248;10.336;2022-10-16T12:47:49;19.30;1.00
7028;DHT22;3555;53.248;10.336;2022-10-16T12:50:32;19.40;1.00
7028;DHT22;3555;53.248;10.336;2022-10-16T12:53:01;19.40;1.00
7028;DHT22;3555;53.248;10.336;2022-10-16T12:55:44;19.40;99.90
7028;DHT22;3555;53.248;10.336;2022-10-16T12:58:34;19.50;99.90
7028;DHT22;3555;53.248;10.336;2022-10-16T13:01:10;19.50;99.90
7028;DHT22;3555;53.248;10.336;2022-10-16T13:04:02;19.30;99.90
7028;DHT22;3555;53.248;10.336;2022-10-16T13:06:38;19.30;1.00
7028;DHT22;3555;53.248;10.336;2022-10-16T13:09:14;19.40;99.90
7028;DHT22;3555;53.248;10.336;2022-10-16T13:12:09;19.50;1.00
7028;DHT22;3555;53.248;10.336;2022-10-16T13:15:01;19.50;99.90
7028;DHT22;3555;53.248;10.336;2022-10-16T13:17:36;19.60;99.90
7028;DHT22;3555;53.248;10.336;2022-10-16T13:20:16;19.60;99.90
7028;DHT22;3555;53.248;10.336;2022-10-16T13:22:51;19.60;99.90
7028;DHT22;3555;53.248;10.336;2022-10-16T13:25:27;19.60;99.90
7028;DHT22;3555;53.248;10.336;2022-10-16T13:27:59;19.70;99.90
7028;DHT22;3555;53.248;10.336;2022-10-16T13:30:29;19.70;1.00
7028;DHT22;3555;53.248;10.336;2022-10-16T13:33:00;19.70;1.00
7028;DHT22;3555;53.248;10.336;2022-10-16T13:35:28;19.70;1.00
7028;DHT22;3555;53.248;10.336;2022-10-16T13:38:12;19.80;1.00
7028;DHT22;3555;53.248;10.336;2022-10-16T13:40:52;19.80;99.90
7028;DHT22;3555;53.248;10.336;2022-10-16T13:43:23;19.70;99.90
7028;DHT22;3555;53.248;10.336;2022-10-16T13:45:55;19.50;99.90
7028;DHT22;3555;53.248;10.336;2022-10-16T13:48:22;19.60;1.00
7028;DHT22;3555;53.248;10.336;2022-10-16T13:51:02;19.70;1.00
7028;DHT22;3555;53.248;10.336;2022-10-16T13:53:31;19.70;99.90
7028;DHT22;3555;53.248;10.336;2022-10-16T13:55:59;19.70;1.00
7028;DHT22;3555;53.248;10.336;2022-10-16T13:58:28;19.70;99.90
7028;DHT22;3555;53.248;10.336;2022-10-16T14:00:57;19.70;99.90
7028;DHT22;3555;53.248;10.336;2022-10-16T14:03:25;19.80;1.00
7028;DHT22;3555;53.248;10.336;2022-10-16T14:05:54;19.90;95.70
7028;DHT22;3555;53.248;10.336;2022-10-16T14:08:22;20.00;99.90
7028;DHT22;3555;53.248;10.336;2022-10-16T14:10:52;20.00;58.30
7028;DHT22;3555;53.248;10.336;2022-10-16T14:13:29;20.10;99.90
7028;DHT22;3555;53.248;10.336;2022-10-16T14:16:00;20.00;99.90
7028;DHT22;3555;53.248;10.336;2022-10-16T14:18:29;20.10;1.00
7028;DHT22;3555;53.248;10.336;2022-10-16T14:21:03;20.20;99.90
7028;DHT22;3555;53.248;10.336;2022-10-16T14:23:32;20.10;99.90
7028;DHT22;3555;53.248;10.336;2022-10-16T14:26:15;20.30;1.00
7028;DHT22;3555;53.248;10.336;2022-10-16T14:28:43;20.30;1.00
7028;DHT22;3555;53.248;10.336;2022-10-16T14:31:32;20.40;1.00
7028;DHT22;3555;53.248;10.336;2022-10-16T14:33:59;20.40;1.00
7028;DHT22;3555;53.248;10.336;2022-10-16T14:36:27;20.40;99.90
7028;DHT22;3555;53.248;10.336;2022-10-16T14:38:59;20.10;99.90
7028;DHT22;3555;53.248;10.336;2022-10-16T14:41:28;20.00;99.90
7028;DHT22;3555;53.248;10.336;2022-10-16T14:43:56;20.00;1.00
7028;DHT22;3555;53.248;10.336;2022-10-16T14:46:33;20.00;99.90
7028;DHT22;3555;53.248;10.336;2022-10-16T14:49:04;19.90;99.90
7028;DHT22;3555;53.248;10.336;2022-10-16T14:51:31;19.90;99.90
7028;DHT22;3555;53.248;10.336;2022-10-16T14:53:58;19.70;1.00
7028;DHT22;3555;53.248;10.336;2022-10-16T14:56:29;19.60;99.90
7028;DHT22;3555;53.248;10.336;2022-10-16T14:58:56;19.50;99.90
7028;DHT22;3555;53.248;10.336;2022-10-16T15:01:23;19.60;99.90
7028;DHT22;3555;53.248;10.336;2022-10-16T15:03:51;19.40;99.90
7028;DHT22;3555;53.248;10.336;2022-10-16T15:06:20;19.40;99.90
7028;DHT22;3555;53.248;10.336;2022-10-16T15:08:47;19.20;99.90
7028;DHT22;3555;53.248;10.336;2022-10-16T15:11:16;19.10;1.00
7028;DHT22;3555;53.248;10.336;2022-10-16T15:13:44;19.00;1.00
7028;DHT22;3555;53.248;10.336;2022-10-16T15:16:13;18.90;99.90
7028;DHT22;3555;53.248;10.336;2022-10-16T15:18:41;19.00;1.00
7028;DHT22;3555;53.248;10.336;2022-10-16T15:21:15;19.00;1.00
7028;DHT22;3555;53.248;10.336;2022-10-16T15:23:48;19.00;99.90
7028;DHT22;3555;53.248;10.336;2022-10-16T15:26:16;18.90;1.00
7028;DHT22;3555;53.248;10.336;2022-10-16T15:28:42;18.90;1.00
7028;DHT22;3555;53.248;10.336;2022-10-16T15:31:09;19.00;99.90
7028;DHT22;3555;53.248;10.336;2022-10-16T15:33:36;18.90;99.90
7028;DHT22;3555;53.248;10.336;2022-10-16T15:36:04;18.80;1.00
7028;DHT22;3555;53.248;10.336;2022-10-16T15:38:32;18.80;1.00
7028;DHT22;3555;53.248;10.336;2022-10-16T15:40:59;18.70;1.00
7028;DHT22;3555;53.248;10.336;2022-10-16T15:43:25;18.70;1.00
7028;DHT22;3555;53.248;10.336;2022-10-16T15:45:59;18.60;1.00
7028;DHT22;3555;53.248;10.336;2022-10-16T15:48:27;18.80;45.40
7028;DHT22;3555;53.248;10.336;2022-10-16T15:50:54;18.90;1.00
7028;DHT22;3555;53.248;10.336;2022-10-16T15:53:20;18.70;1.00
7028;DHT22;3555;53.248;10.336;2022-10-16T15:55:49;18.80;1.00
7028;DHT22;3555;53.248;10.336;2022-10-16T15:58:16;18.50;1.00
7028;DHT22;3555;53.248;10.336;2022-10-16T16:00:42;18.50;77.50
7028;DHT22;3555;53.248;10.336;2022-10-16T16:03:09;18.30;1.00
7028;DHT22;3555;53.248;10.336;2022-10-16T16:05:38;18.40;99.90
7028;DHT22;3555;53.248;10.336;2022-10-16T16:08:04;18.40;99.90
7028;DHT22;3555;53.248;10.336;2022-10-16T16:10:31;18.50;1.00